createdAt,value
2022-10-26T00:01:24.939Z,87.19
2022-10-26T00:03:57.143Z,87.26
2022-10-26T00:06:27.058Z,86.79
2022-10-26T00:08:57.540Z,86.78
2022-10-26T00:11:25.965Z,86.98
2022-10-26T00:13:54.445Z,86.70
2022-10-26T00:16:26.998Z,86.82
2022-10-26T00:18:55.955Z,87.06
2022-10-26T00:21:24.295Z,87.38
2022-10-26T00:23:52.774Z,87.57
2022-10-26T00:26:21.077Z,87.59
2022-10-26T00:28:49.425Z,87.48
2022-10-26T00:31:17.938Z,87.37
2022-10-26T00:33:46.430Z,87.15
2022-10-26T00:36:17.011Z,87.00
2022-10-26T00:38:54.240Z,86.99
2022-10-26T00:41:27.172Z,86.73
2022-10-26T00:43:56.477Z,86.83
2022-10-26T00:46:35.678Z,86.91
2022-10-26T00:51:53.895Z,86.78
2022-10-26T00:54:22.355Z,86.82
2022-10-26T00:56:54.812Z,86.55
2022-10-26T00:59:24.021Z,86.20
2022-10-26T01:01:53.282Z,86.21
2022-10-26T01:04:22.215Z,86.27
2022-10-26T01:06:52.332Z,86.15
2022-10-26T01:09:21.537Z,86.21
2022-10-26T01:11:49.850Z,86.22
2022-10-26T01:14:19.938Z,86.30
2022-10-26T01:17:10.014Z,86.11
2022-10-26T01:20:14.223Z,86.24
2022-10-26T01:23:02.883Z,86.40
2022-10-26T01:25:34.326Z,86.49
2022-10-26T01:28:11.891Z,86.70
2022-10-26T01:30:44.630Z,86.79
2022-10-26T01:33:40.327Z,86.91
2022-10-26T01:36:25.957Z,86.98
2022-10-26T01:39:21.926Z,87.14
2022-10-26T01:41:53.074Z,86.68
2022-10-26T01:44:48.354Z,86.63
2022-10-26T01:47:18.701Z,86.37
2022-10-26T01:49:57.810Z,86.29
2022-10-26T01:52:26.522Z,86.00
2022-10-26T01:55:42.000Z,85.73
2022-10-26T01:58:40.608Z,85.26
2022-10-26T02:01:52.302Z,84.96
2022-10-26T02:04:56.709Z,84.73
2022-10-26T02:08:18.910Z,84.85
2022-10-26T02:11:12.921Z,84.79
2022-10-26T02:13:52.824Z,85.07
2022-10-26T02:16:52.607Z,84.81
2022-10-26T02:19:47.085Z,84.81
2022-10-26T02:22:34.403Z,85.44
2022-10-26T02:25:09.954Z,85.76
2022-10-26T02:27:46.015Z,85.58
2022-10-26T02:30:14.460Z,85.45
2022-10-26T02:32:50.156Z,85.02
2022-10-26T02:35:23.587Z,84.97
2022-10-26T02:37:53.978Z,84.95
2022-10-26T02:40:27.583Z,85.08
2022-10-26T02:43:03.124Z,85.25
2022-10-26T02:45:38.639Z,85.06
2022-10-26T02:48:07.644Z,85.26
2022-10-26T02:50:56.104Z,85.04
2022-10-26T02:53:37.511Z,85.21
2022-10-26T02:56:20.517Z,85.09
2022-10-26T02:58:56.205Z,85.35
2022-10-26T03:01:25.441Z,85.48
2022-10-26T03:03:58.028Z,85.58
2022-10-26T03:06:27.555Z,85.60
2022-10-26T03:08:55.925Z,85.71
2022-10-26T03:11:24.319Z,86.24
2022-10-26T03:13:52.690Z,86.35
2022-10-26T03:16:21.068Z,86.59
2022-10-26T03:18:49.561Z,86.45
2022-10-26T03:21:18.042Z,87.22
2022-10-26T03:23:48.056Z,87.61
2022-10-26T03:26:16.421Z,87.67
2022-10-26T03:28:44.816Z,88.34
2022-10-26T03:31:13.172Z,88.21
2022-10-26T03:33:41.574Z,88.89
2022-10-26T03:36:10.213Z,88.79
2022-10-26T03:38:38.617Z,88.75
2022-10-26T03:41:06.884Z,88.56
2022-10-26T03:43:35.121Z,89.17
2022-10-26T03:46:03.373Z,89.45
2022-10-26T03:48:31.721Z,89.52
2022-10-26T03:51:00.428Z,89.80
2022-10-26T03:53:28.717Z,89.97
2022-10-26T03:55:57.101Z,89.92
2022-10-26T04:00:58.650Z,90.18
2022-10-26T04:03:26.973Z,90.31
2022-10-26T04:05:55.406Z,89.51
2022-10-26T04:08:23.899Z,89.61
2022-10-26T04:10:52.126Z,89.64
2022-10-26T04:13:20.465Z,89.60
2022-10-26T04:15:50.050Z,89.59
2022-10-26T04:18:18.369Z,89.35
2022-10-26T04:20:46.771Z,89.44
2022-10-26T04:23:17.906Z,89.40
2022-10-26T04:25:46.941Z,89.52
2022-10-26T04:28:15.375Z,89.48
2022-10-26T04:30:43.802Z,89.60
2022-10-26T04:33:12.857Z,89.53
2022-10-26T04:35:41.227Z,89.30
2022-10-26T04:38:10.376Z,88.76
2022-10-26T04:40:38.688Z,88.59
2022-10-26T04:43:07.166Z,88.63
2022-10-26T04:45:35.422Z,88.26
2022-10-26T04:48:07.485Z,88.07
2022-10-26T04:50:36.498Z,87.79
2022-10-26T04:53:06.380Z,87.90
2022-10-26T04:55:35.595Z,87.48
2022-10-26T04:58:04.410Z,86.93
2022-10-26T05:00:33.710Z,86.45
2022-10-26T05:03:07.194Z,86.28
2022-10-26T05:05:37.507Z,86.09
2022-10-26T05:08:06.256Z,85.92
2022-10-26T05:10:35.152Z,85.37
2022-10-26T05:13:03.626Z,85.25
2022-10-26T05:15:31.981Z,84.97
2022-10-26T05:18:05.881Z,84.92
2022-10-26T05:20:36.374Z,84.93
2022-10-26T05:23:07.874Z,84.82
2022-10-26T05:25:37.658Z,85.32
2022-10-26T05:28:12.342Z,85.04
2022-10-26T05:30:46.045Z,85.07
2022-10-26T05:33:15.289Z,85.30
2022-10-26T05:35:43.685Z,85.30
2022-10-26T05:38:17.519Z,85.61
2022-10-26T05:40:53.415Z,85.82
2022-10-26T05:43:25.042Z,86.47
2022-10-26T05:45:54.532Z,86.87
2022-10-26T05:48:34.167Z,86.99
2022-10-26T05:51:02.463Z,87.07
2022-10-26T05:53:30.742Z,86.38
2022-10-26T05:55:59.573Z,85.74
2022-10-26T05:58:28.261Z,85.70
2022-10-26T06:01:40.596Z,84.73
2022-10-26T06:04:20.900Z,84.16
2022-10-26T06:06:54.815Z,83.90
2022-10-26T06:09:23.705Z,83.09
2022-10-26T06:11:52.367Z,82.98
2022-10-26T06:14:21.110Z,83.00
2022-10-26T06:17:22.805Z,82.97
2022-10-26T06:19:57.032Z,82.86
2022-10-26T06:22:34.722Z,82.69
2022-10-26T06:25:47.705Z,82.70
2022-10-26T06:28:34.230Z,82.86
2022-10-26T06:31:03.045Z,82.96
2022-10-26T06:33:32.177Z,82.72
2022-10-26T06:36:20.826Z,82.85
2022-10-26T06:38:55.923Z,82.59
2022-10-26T06:41:25.142Z,82.58
2022-10-26T06:43:53.970Z,82.21
2022-10-26T06:46:53.058Z,82.09
2022-10-26T06:49:24.223Z,81.85
2022-10-26T06:52:19.859Z,81.60
2022-10-26T06:54:53.609Z,81.78
2022-10-26T06:57:25.352Z,81.61
2022-10-26T06:59:57.476Z,81.50
2022-10-26T07:02:26.190Z,81.45
2022-10-26T07:04:54.666Z,81.34
2022-10-26T07:07:31.292Z,81.46
2022-10-26T07:09:59.840Z,80.92
2022-10-26T07:12:32.135Z,80.63
2022-10-26T07:15:01.716Z,80.30
2022-10-26T07:17:30.777Z,80.34
2022-10-26T07:19:59.155Z,79.43
2022-10-26T07:22:27.592Z,79.28
2022-10-26T07:24:57.985Z,79.49
2022-10-26T07:27:29.069Z,79.75
2022-10-26T07:29:57.545Z,79.78
2022-10-26T07:32:25.949Z,79.59
2022-10-26T07:34:54.317Z,79.45
2022-10-26T07:37:22.622Z,79.68
2022-10-26T07:39:51.153Z,79.00
2022-10-26T07:42:20.355Z,78.78
2022-10-26T07:44:48.929Z,78.32
2022-10-26T07:47:17.612Z,77.98
2022-10-26T07:49:45.893Z,77.53
2022-10-26T07:52:14.329Z,76.91
2022-10-26T07:54:42.666Z,77.72
2022-10-26T07:57:11.025Z,77.23
2022-10-26T07:59:39.571Z,76.76
2022-10-26T08:02:10.537Z,76.84
2022-10-26T08:04:38.999Z,75.62
2022-10-26T08:07:07.438Z,75.41
2022-10-26T08:09:37.008Z,75.47
2022-10-26T08:12:05.912Z,75.65
2022-10-26T08:14:34.300Z,75.10
2022-10-26T08:17:02.689Z,75.55
2022-10-26T08:19:31.298Z,75.24
2022-10-26T08:21:59.713Z,75.34
2022-10-26T08:24:28.036Z,75.77
2022-10-26T08:26:56.559Z,75.03
2022-10-26T08:29:25.042Z,75.62
2022-10-26T08:32:00.905Z,75.30
2022-10-26T08:34:29.223Z,74.49
2022-10-26T08:36:57.702Z,74.15
2022-10-26T08:39:28.752Z,73.53
2022-10-26T08:42:31.753Z,73.04
2022-10-26T08:45:07.912Z,72.94
2022-10-26T08:47:45.182Z,72.31
2022-10-26T08:50:40.584Z,72.07
2022-10-26T08:53:27.119Z,71.90
2022-10-26T08:56:06.958Z,72.12
2022-10-26T08:58:47.236Z,72.34
2022-10-26T09:01:17.128Z,71.24
2022-10-26T09:03:45.897Z,71.46
2022-10-26T09:07:15.368Z,71.06
2022-10-26T09:10:02.028Z,70.94
2022-10-26T09:12:42.508Z,71.06
2022-10-26T09:15:14.507Z,71.48
2022-10-26T09:17:49.580Z,70.81
2022-10-26T09:20:32.401Z,70.27
2022-10-26T09:23:38.437Z,70.30
2022-10-26T09:26:25.624Z,70.43
2022-10-26T09:29:00.656Z,69.82
2022-10-26T09:31:32.177Z,69.36
2022-10-26T09:34:06.162Z,68.89
2022-10-26T09:36:36.955Z,69.12
2022-10-26T09:39:19.420Z,69.65
2022-10-26T09:41:58.510Z,69.05
2022-10-26T09:44:44.588Z,68.13
2022-10-26T09:47:29.331Z,68.74
2022-10-26T09:50:07.263Z,68.33
2022-10-26T09:52:35.565Z,67.95
2022-10-26T09:55:04.030Z,66.67
2022-10-26T09:57:32.886Z,66.74
2022-10-26T10:00:01.249Z,67.08
2022-10-26T10:02:44.074Z,67.49
2022-10-26T10:05:50.673Z,66.68
2022-10-26T10:08:26.253Z,66.23
2022-10-26T10:11:02.229Z,65.74
2022-10-26T10:13:34.067Z,65.60
2022-10-26T10:16:20.131Z,65.21
2022-10-26T10:19:01.051Z,65.74
2022-10-26T10:21:50.433Z,65.59
2022-10-26T10:24:35.189Z,65.67
2022-10-26T10:27:15.852Z,66.23
2022-10-26T10:29:50.717Z,65.79
2022-10-26T10:32:22.470Z,66.28
2022-10-26T10:34:53.233Z,66.01
2022-10-26T10:37:46.193Z,65.46
2022-10-26T10:40:21.466Z,64.83
2022-10-26T10:42:53.557Z,64.73
2022-10-26T10:45:29.873Z,64.30
2022-10-26T10:48:27.594Z,64.10
2022-10-26T10:51:03.742Z,63.45
2022-10-26T10:53:44.169Z,63.35
2022-10-26T10:56:32.124Z,63.14
2022-10-26T10:59:39.160Z,63.19
2022-10-26T11:02:41.436Z,62.54
2022-10-26T11:05:31.558Z,62.25
2022-10-26T11:08:32.171Z,62.49
2022-10-26T11:11:08.773Z,61.94
2022-10-26T11:13:41.734Z,61.28
2022-10-26T11:16:36.454Z,60.81
2022-10-26T11:19:36.909Z,61.36
2022-10-26T11:22:14.932Z,61.24
2022-10-26T11:24:55.002Z,61.31
2022-10-26T11:28:02.131Z,60.83
2022-10-26T11:30:33.974Z,60.72
2022-10-26T11:33:11.611Z,60.09
2022-10-26T11:35:53.121Z,60.05
2022-10-26T11:38:46.037Z,58.58
2022-10-26T11:41:30.241Z,58.75
2022-10-26T11:45:05.706Z,58.82
2022-10-26T11:47:55.900Z,58.76
2022-10-26T11:50:34.844Z,58.59
2022-10-26T11:53:31.881Z,59.09
2022-10-26T11:56:02.145Z,59.00
2022-10-26T11:58:32.730Z,58.45
2022-10-26T12:01:08.751Z,58.13
2022-10-26T12:03:45.779Z,57.92
2022-10-26T12:06:19.269Z,58.07
2022-10-26T12:09:08.481Z,58.13
2022-10-26T12:12:06.401Z,57.60
2022-10-26T12:14:49.866Z,57.25
2022-10-26T12:17:29.900Z,57.83
2022-10-26T12:20:19.934Z,57.53
2022-10-26T12:22:49.140Z,57.59
2022-10-26T12:25:17.581Z,57.49
2022-10-26T12:27:45.813Z,57.01
2022-10-26T12:30:24.629Z,56.92
2022-10-26T12:33:51.019Z,56.78
2022-10-26T12:36:56.498Z,57.42
2022-10-26T12:39:45.701Z,57.30
2022-10-26T12:42:17.189Z,57.24
2022-10-26T12:44:45.889Z,57.50
2022-10-26T12:47:49.591Z,58.01
2022-10-26T12:50:25.016Z,57.94
2022-10-26T12:53:10.873Z,56.96
2022-10-26T12:55:56.363Z,57.35
2022-10-26T12:59:01.098Z,56.78
2022-10-26T13:01:44.877Z,56.73
2022-10-26T13:04:37.298Z,56.83
2022-10-26T13:07:34.039Z,57.10
2022-10-26T13:10:12.987Z,57.37
2022-10-26T13:12:54.901Z,57.55
2022-10-26T13:15:36.598Z,57.49
2022-10-26T13:18:07.507Z,57.39
2022-10-26T13:20:52.213Z,57.00
2022-10-26T13:23:28.253Z,56.82
2022-10-26T13:26:05.907Z,56.03
2022-10-26T13:28:53.885Z,56.22
2022-10-26T13:31:34.687Z,56.02
2022-10-26T13:34:18.422Z,55.86
2022-10-26T13:37:15.771Z,56.02
2022-10-26T13:39:47.455Z,56.02
2022-10-26T13:42:22.758Z,56.15
2022-10-26T13:44:56.084Z,56.50
2022-10-26T13:47:30.080Z,56.83
2022-10-26T13:50:12.915Z,57.00
2022-10-26T13:53:08.513Z,56.76
2022-10-26T13:55:49.893Z,55.88
2022-10-26T13:58:36.185Z,55.40
2022-10-26T14:01:18.559Z,55.17
2022-10-26T14:03:48.979Z,55.04
2022-10-26T14:06:24.443Z,54.27
2022-10-26T14:08:56.937Z,54.40
2022-10-26T14:11:34.549Z,54.56
2022-10-26T14:14:04.659Z,54.89
2022-10-26T14:16:34.692Z,54.98
2022-10-26T14:19:03.704Z,55.36
2022-10-26T14:21:32.021Z,55.98
2022-10-26T14:24:07.729Z,56.06
2022-10-26T14:26:41.466Z,56.64
2022-10-26T14:29:22.277Z,57.06
2022-10-26T14:31:51.130Z,57.57
2022-10-26T14:34:20.069Z,57.93
2022-10-26T14:37:15.314Z,58.08
2022-10-26T14:39:47.224Z,58.37
2022-10-26T14:42:44.693Z,58.69
2022-10-26T14:45:50.210Z,58.82
2022-10-26T14:48:33.444Z,59.15
2022-10-26T14:51:25.489Z,59.53
2022-10-26T14:53:59.335Z,59.74
2022-10-26T14:56:40.518Z,59.99
2022-10-26T14:59:33.078Z,60.23
2022-10-26T15:02:37.345Z,60.48
2022-10-26T15:05:24.049Z,60.76
2022-10-26T15:07:53.341Z,61.18
2022-10-26T15:10:36.474Z,61.29
2022-10-26T15:13:31.258Z,61.43
2022-10-26T15:16:16.190Z,61.66
2022-10-26T15:18:47.382Z,61.83
2022-10-26T15:21:52.628Z,62.19
2022-10-26T15:24:21.377Z,62.52
2022-10-26T15:26:49.872Z,62.59
2022-10-26T15:29:43.540Z,62.95
2022-10-26T15:32:23.905Z,63.08
2022-10-26T15:35:13.802Z,63.39
2022-10-26T15:37:42.243Z,63.65
2022-10-26T15:40:11.812Z,63.96
2022-10-26T15:42:42.157Z,64.09
2022-10-26T15:45:33.253Z,64.28
2022-10-26T15:48:19.331Z,64.41
2022-10-26T15:50:47.616Z,64.82
2022-10-26T15:53:28.518Z,65.05
2022-10-26T15:55:59.945Z,64.90
2022-10-26T15:58:31.429Z,65.07
2022-10-26T16:00:59.886Z,65.35
2022-10-26T16:03:29.065Z,65.71
2022-10-26T16:06:00.993Z,65.88
2022-10-26T16:08:31.583Z,66.04
2022-10-26T16:10:59.770Z,66.30
2022-10-26T16:13:30.504Z,66.48
2022-10-26T16:15:58.874Z,66.42
2022-10-26T16:18:27.702Z,66.30
2022-10-26T16:20:56.593Z,66.31
2022-10-26T16:23:24.793Z,66.61
2022-10-26T16:25:54.283Z,66.55
2022-10-26T16:28:22.558Z,66.56
2022-10-26T16:30:50.922Z,66.64
2022-10-26T16:33:19.213Z,66.56
2022-10-26T16:35:59.552Z,66.44
2022-10-26T16:38:28.650Z,66.30
2022-10-26T16:41:13.292Z,66.28
2022-10-26T16:43:43.764Z,66.12
2022-10-26T16:46:19.076Z,65.92
2022-10-26T16:48:49.405Z,65.84
2022-10-26T16:51:24.091Z,65.72
2022-10-26T16:53:56.362Z,65.90
2022-10-26T16:56:30.310Z,65.79
2022-10-26T16:58:58.685Z,65.82
2022-10-26T17:01:27.216Z,65.80
2022-10-26T17:03:56.259Z,65.81
2022-10-26T17:06:24.414Z,65.91
2022-10-26T17:08:52.697Z,65.85
2022-10-26T17:11:22.109Z,65.87
2022-10-26T17:13:55.001Z,65.86
2022-10-26T17:16:24.974Z,65.80
2022-10-26T17:18:54.194Z,65.79
2022-10-26T17:21:35.101Z,65.58
2022-10-26T17:24:03.837Z,65.35
2022-10-26T17:26:32.074Z,65.39
2022-10-26T17:29:00.384Z,65.33
2022-10-26T17:31:29.083Z,65.27
2022-10-26T17:33:57.574Z,65.41
2022-10-26T17:36:27.211Z,65.58
2022-10-26T17:38:55.986Z,65.55
2022-10-26T17:41:25.148Z,65.84
2022-10-26T17:43:54.373Z,66.02
2022-10-26T17:46:26.358Z,66.27
2022-10-26T17:49:00.139Z,66.44
2022-10-26T17:51:30.139Z,66.42
2022-10-26T17:53:59.336Z,66.77
2022-10-26T17:56:32.209Z,67.00
2022-10-26T17:59:09.999Z,67.17
2022-10-26T18:01:38.785Z,67.50
2022-10-26T18:04:07.104Z,67.88
2022-10-26T18:06:35.421Z,68.18
2022-10-26T18:09:03.815Z,68.18
2022-10-26T18:14:05.638Z,69.46
2022-10-26T18:16:33.950Z,69.80
2022-10-26T18:19:05.181Z,70.01
2022-10-26T18:21:37.779Z,70.37
2022-10-26T18:24:08.403Z,70.60
2022-10-26T18:26:37.008Z,70.62
2022-10-26T18:29:06.166Z,70.58
2022-10-26T18:31:38.044Z,70.64
2022-10-26T18:34:06.996Z,70.59
2022-10-26T18:36:35.448Z,70.23
2022-10-26T18:39:03.992Z,70.03
2022-10-26T18:41:32.291Z,70.05
2022-10-26T18:44:01.960Z,70.16
2022-10-26T18:46:33.911Z,70.12
2022-10-26T18:49:02.329Z,70.02
2022-10-26T18:51:33.563Z,69.96
2022-10-26T18:54:03.132Z,69.79
2022-10-26T18:56:31.603Z,69.38
2022-10-26T18:59:01.266Z,69.07
2022-10-26T19:01:33.300Z,68.63
2022-10-26T19:04:06.093Z,68.42
2022-10-26T19:06:40.767Z,68.27
2022-10-26T19:09:10.366Z,68.11
2022-10-26T19:11:39.175Z,68.02
2022-10-26T19:14:08.261Z,68.01
2022-10-26T19:16:45.811Z,67.98
2022-10-26T19:19:17.439Z,68.03
2022-10-26T19:21:49.791Z,68.79
2022-10-26T19:24:23.822Z,68.95
2022-10-26T19:26:52.586Z,68.99
2022-10-26T19:29:21.484Z,69.51
2022-10-26T19:31:53.149Z,69.58
2022-10-26T19:34:21.893Z,69.69
2022-10-26T19:36:50.234Z,69.81
2022-10-26T19:39:18.833Z,69.92
2022-10-26T19:41:47.257Z,69.93
2022-10-26T19:44:16.710Z,70.09
2022-10-26T19:46:47.135Z,70.27
2022-10-26T19:49:17.768Z,70.34
2022-10-26T19:51:48.032Z,70.54
2022-10-26T19:54:16.271Z,70.51
2022-10-26T19:56:44.641Z,70.64
2022-10-26T19:59:13.540Z,70.75
2022-10-26T20:01:41.865Z,70.94
2022-10-26T20:04:10.302Z,70.95
2022-10-26T20:06:38.783Z,71.11
2022-10-26T20:09:07.103Z,71.13
2022-10-26T20:11:38.284Z,71.17
2022-10-26T20:14:07.897Z,71.41
2022-10-26T20:16:36.122Z,71.50
2022-10-26T20:19:04.458Z,71.62
2022-10-26T20:21:32.750Z,71.73
2022-10-26T20:24:00.985Z,72.03
2022-10-26T20:26:29.265Z,72.38
2022-10-26T20:28:57.670Z,72.36
2022-10-26T20:31:25.953Z,72.32
2022-10-26T20:33:54.294Z,72.34
2022-10-26T20:36:23.011Z,72.35
2022-10-26T20:38:52.523Z,72.39
2022-10-26T20:41:22.173Z,72.45
2022-10-26T20:43:53.297Z,72.80
2022-10-26T20:46:27.675Z,73.28
2022-10-26T20:48:56.457Z,73.36
2022-10-26T20:52:08.647Z,73.50
2022-10-26T20:54:52.144Z,74.08
2022-10-26T20:57:28.770Z,74.23
2022-10-26T21:00:07.712Z,74.44
2022-10-26T21:02:36.573Z,74.56
2022-10-26T21:05:05.734Z,74.34
2022-10-26T21:07:33.998Z,74.12
2022-10-26T21:10:02.329Z,74.03
2022-10-26T21:12:30.620Z,73.81
2022-10-26T21:14:58.883Z,73.65
2022-10-26T21:17:27.126Z,73.60
2022-10-26T21:19:55.335Z,73.41
2022-10-26T21:22:23.715Z,73.32
2022-10-26T21:24:52.312Z,73.15
2022-10-26T21:27:20.791Z,73.33
2022-10-26T21:29:49.081Z,73.56
2022-10-26T21:32:17.856Z,73.32
2022-10-26T21:34:46.234Z,73.46
2022-10-26T21:37:14.616Z,73.43
2022-10-26T21:39:43.186Z,73.64
2022-10-26T21:42:11.765Z,73.60
2022-10-26T21:44:41.360Z,73.65
2022-10-26T21:47:13.055Z,73.67
2022-10-26T21:52:14.613Z,73.69
2022-10-26T21:54:42.846Z,73.47
2022-10-26T21:57:11.068Z,73.57
2022-10-26T21:59:39.320Z,73.52
2022-10-26T22:02:07.919Z,73.40
2022-10-26T22:04:36.479Z,73.64
2022-10-26T22:07:04.985Z,73.79
2022-10-26T22:09:40.563Z,73.90
2022-10-26T22:12:18.232Z,74.04
2022-10-26T22:14:46.691Z,73.82
2022-10-26T22:17:15.272Z,73.90
2022-10-26T22:19:43.774Z,73.75
2022-10-26T22:22:12.167Z,73.45
2022-10-26T22:24:41.287Z,73.58
2022-10-26T22:27:09.874Z,73.31
2022-10-26T22:29:38.313Z,73.46
2022-10-26T22:32:06.713Z,73.27
2022-10-26T22:34:35.274Z,72.98
2022-10-26T22:37:03.665Z,73.21
2022-10-26T22:39:32.129Z,73.48
2022-10-26T22:42:00.814Z,73.93
2022-10-26T22:44:29.480Z,74.28
2022-10-26T22:46:59.469Z,74.44
2022-10-26T22:49:27.982Z,74.47
2022-10-26T22:51:56.377Z,74.55
2022-10-26T22:54:24.959Z,74.57
2022-10-26T22:56:53.434Z,74.71
2022-10-26T22:59:21.921Z,74.89
2022-10-26T23:01:50.517Z,74.94
2022-10-26T23:04:18.984Z,75.03
2022-10-26T23:06:47.240Z,74.94
2022-10-26T23:09:15.617Z,74.92
2022-10-26T23:11:43.901Z,74.83
2022-10-26T23:14:12.163Z,75.05
2022-10-26T23:16:40.558Z,74.99
2022-10-26T23:19:09.255Z,75.08
2022-10-26T23:21:37.532Z,75.00
2022-10-26T23:24:06.216Z,75.08
2022-10-26T23:26:34.883Z,75.24
2022-10-26T23:29:03.179Z,75.45
2022-10-26T23:31:31.447Z,75.36
2022-10-26T23:33:59.765Z,75.29
2022-10-26T23:36:28.108Z,75.08
2022-10-26T23:38:56.481Z,75.24
2022-10-26T23:41:24.955Z,75.35
2022-10-26T23:43:53.449Z,75.49
2022-10-26T23:46:21.878Z,75.21
2022-10-26T23:48:50.614Z,74.53
2022-10-26T23:51:18.892Z,74.01
2022-10-26T23:53:47.183Z,73.77
2022-10-26T23:56:15.529Z,73.64
2022-10-26T23:58:43.817Z,73.24
